sensor_id;sensor_type;location;lat;lon;timestamp;P1;durP1;ratioP1;P2;durP2;ratioP2
9310;SDS011;4694;52.464;13.480;2023-07-16T00:00:45;3.83;;;3.53;;
9310;SDS011;4694;52.464;13.480;2023-07-16T00:03:12;4.40;;;3.90;;
9310;SDS011;4694;52.464;13.480;2023-07-16T00:05:39;4.93;;;4.35;;
9310;SDS011;4694;52.464;13.480;2023-07-16T00:08:05;4.82;;;3.67;;
9310;SDS011;4694;52.464;13.480;2023-07-16T00:10:34;3.72;;;3.42;;
9310;SDS011;4694;52.464;13.480;2023-07-16T00:13:00;7.75;;;3.53;;
9310;SDS011;4694;52.464;13.480;2023-07-16T00:15:27;4.28;;;3.88;;
9310;SDS011;4694;52.464;13.480;2023-07-16T00:17:54;5.80;;;3.50;;
9310;SDS011;4694;52.464;13.480;2023-07-16T00:20:21;3.60;;;3.22;;
9310;SDS011;4694;52.464;13.480;2023-07-16T00:22:48;5.10;;;3.08;;
9310;SDS011;4694;52.464;13.480;2023-07-16T00:25:15;6.50;;;3.58;;
9310;SDS011;4694;52.464;13.480;2023-07-16T00:27:43;3.90;;;3.50;;
9310;SDS011;4694;52.464;13.480;2023-07-16T00:30:10;4.47;;;3.85;;
9310;SDS011;4694;52.464;13.480;2023-07-16T00:32:37;4.35;;;3.85;;
9310;SDS011;4694;52.464;13.480;2023-07-16T00:35:04;5.57;;;3.88;;
9310;SDS011;4694;52.464;13.480;2023-07-16T00:37:32;3.72;;;3.40;;
9310;SDS011;4694;52.464;13.480;2023-07-16T00:39:59;7.22;;;4.80;;
9310;SDS011;4694;52.464;13.480;2023-07-16T00:42:26;5.00;;;4.50;;
9310;SDS011;4694;52.464;13.480;2023-07-16T00:44:54;4.85;;;3.90;;
9310;SDS011;4694;52.464;13.480;2023-07-16T00:47:21;5.05;;;3.58;;
9310;SDS011;4694;52.464;13.480;2023-07-16T00:49:48;4.72;;;4.25;;
9310;SDS011;4694;52.464;13.480;2023-07-16T00:52:16;4.00;;;3.55;;
9310;SDS011;4694;52.464;13.480;2023-07-16T00:54:45;6.95;;;4.28;;
9310;SDS011;4694;52.464;13.480;2023-07-16T00:57:11;8.55;;;4.88;;
9310;SDS011;4694;52.464;13.480;2023-07-16T00:59:38;7.70;;;4.75;;
9310;SDS011;4694;52.464;13.480;2023-07-16T01:02:06;5.13;;;4.50;;
9310;SDS011;4694;52.464;13.480;2023-07-16T01:04:32;5.75;;;4.78;;
9310;SDS011;4694;52.464;13.480;2023-07-16T01:07:00;11.13;;;5.15;;
9310;SDS011;4694;52.464;13.480;2023-07-16T01:09:29;8.13;;;4.68;;
9310;SDS011;4694;52.464;13.480;2023-07-16T01:11:56;4.40;;;3.95;;
9310;SDS011;4694;52.464;13.480;2023-07-16T01:14:26;17.45;;;6.07;;
9310;SDS011;4694;52.464;13.480;2023-07-16T01:16:53;12.43;;;5.93;;
9310;SDS011;4694;52.464;13.480;2023-07-16T01:19:25;11.45;;;6.47;;
9310;SDS011;4694;52.464;13.480;2023-07-16T01:21:59;8.75;;;6.80;;
9310;SDS011;4694;52.464;13.480;2023-07-16T01:24:53;7.82;;;6.93;;
9310;SDS011;4694;52.464;13.480;2023-07-16T01:27:35;9.77;;;7.43;;
9310;SDS011;4694;52.464;13.480;2023-07-16T01:30:25;10.18;;;9.02;;
9310;SDS011;4694;52.464;13.480;2023-07-16T01:32:53;13.77;;;10.23;;
9310;SDS011;4694;52.464;13.480;2023-07-16T01:35:21;11.63;;;9.30;;
9310;SDS011;4694;52.464;13.480;2023-07-16T01:37:48;11.65;;;10.43;;
9310;SDS011;4694;52.464;13.480;2023-07-16T01:40:15;13.57;;;10.52;;
9310;SDS011;4694;52.464;13.480;2023-07-16T01:42:42;11.88;;;9.38;;
9310;SDS011;4694;52.464;13.480;2023-07-16T01:45:08;11.98;;;10.35;;
9310;SDS011;4694;52.464;13.480;2023-07-16T01:47:39;12.98;;;9.43;;
9310;SDS011;4694;52.464;13.480;2023-07-16T01:50:10;12.88;;;9.50;;
9310;SDS011;4694;52.464;13.480;2023-07-16T01:52:37;10.13;;;8.18;;
9310;SDS011;4694;52.464;13.480;2023-07-16T01:55:04;9.30;;;7.63;;
9310;SDS011;4694;52.464;13.480;2023-07-16T01:57:31;13.65;;;7.95;;
9310;SDS011;4694;52.464;13.480;2023-07-16T01:59:57;6.00;;;5.38;;
9310;SDS011;4694;52.464;13.480;2023-07-16T02:02:24;7.35;;;6.07;;
9310;SDS011;4694;52.464;13.480;2023-07-16T02:04:52;7.47;;;5.22;;
9310;SDS011;4694;52.464;13.480;2023-07-16T02:07:19;6.28;;;5.03;;
9310;SDS011;4694;52.464;13.480;2023-07-16T02:09:45;4.60;;;3.83;;
9310;SDS011;4694;52.464;13.480;2023-07-16T02:12:12;5.05;;;3.60;;
9310;SDS011;4694;52.464;13.480;2023-07-16T02:14:38;7.50;;;4.40;;
9310;SDS011;4694;52.464;13.480;2023-07-16T02:17:05;6.20;;;4.57;;
9310;SDS011;4694;52.464;13.480;2023-07-16T02:19:32;5.50;;;3.95;;
9310;SDS011;4694;52.464;13.480;2023-07-16T02:22:00;6.35;;;5.03;;
9310;SDS011;4694;52.464;13.480;2023-07-16T02:24:26;6.15;;;4.05;;
9310;SDS011;4694;52.464;13.480;2023-07-16T02:26:53;4.55;;;3.83;;
9310;SDS011;4694;52.464;13.480;2023-07-16T02:29:19;5.07;;;4.30;;
9310;SDS011;4694;52.464;13.480;2023-07-16T02:31:46;4.88;;;3.72;;
9310;SDS011;4694;52.464;13.480;2023-07-16T02:34:13;5.75;;;3.22;;
9310;SDS011;4694;52.464;13.480;2023-07-16T02:36:40;4.57;;;3.63;;
9310;SDS011;4694;52.464;13.480;2023-07-16T02:39:08;4.35;;;3.58;;
9310;SDS011;4694;52.464;13.480;2023-07-16T02:41:34;2.97;;;2.67;;
9310;SDS011;4694;52.464;13.480;2023-07-16T02:44:04;2.95;;;2.65;;
9310;SDS011;4694;52.464;13.480;2023-07-16T02:46:31;2.97;;;2.63;;
9310;SDS011;4694;52.464;13.480;2023-07-16T02:48:58;3.90;;;2.70;;
9310;SDS011;4694;52.464;13.480;2023-07-16T02:51:25;6.50;;;2.97;;
9310;SDS011;4694;52.464;13.480;2023-07-16T02:53:51;4.32;;;3.33;;
9310;SDS011;4694;52.464;13.480;2023-07-16T02:56:19;5.32;;;3.40;;
9310;SDS011;4694;52.464;13.480;2023-07-16T02:58:46;3.50;;;3.20;;
9310;SDS011;4694;52.464;13.480;2023-07-16T03:01:13;9.30;;;3.70;;
9310;SDS011;4694;52.464;13.480;2023-07-16T03:03:40;4.00;;;3.53;;
9310;SDS011;4694;52.464;13.480;2023-07-16T03:06:06;6.35;;;3.50;;
9310;SDS011;4694;52.464;13.480;2023-07-16T03:08:33;7.57;;;3.80;;
9310;SDS011;4694;52.464;13.480;2023-07-16T03:11:00;5.40;;;3.90;;
9310;SDS011;4694;52.464;13.480;2023-07-16T03:13:28;4.85;;;3.60;;
9310;SDS011;4694;52.464;13.480;2023-07-16T03:15:55;4.05;;;3.08;;
9310;SDS011;4694;52.464;13.480;2023-07-16T03:18:21;4.93;;;3.63;;
9310;SDS011;4694;52.464;13.480;2023-07-16T03:20:48;3.38;;;2.70;;
9310;SDS011;4694;52.464;13.480;2023-07-16T03:23:14;4.15;;;3.00;;
9310;SDS011;4694;52.464;13.480;2023-07-16T03:25:41;5.93;;;3.58;;
9310;SDS011;4694;52.464;13.480;2023-07-16T03:28:07;4.55;;;3.50;;
9310;SDS011;4694;52.464;13.480;2023-07-16T03:30:35;4.60;;;3.60;;
9310;SDS011;4694;52.464;13.480;2023-07-16T03:33:03;5.95;;;3.80;;
9310;SDS011;4694;52.464;13.480;2023-07-16T03:35:30;3.75;;;3.15;;
9310;SDS011;4694;52.464;13.480;2023-07-16T03:37:57;4.90;;;3.55;;
9310;SDS011;4694;52.464;13.480;2023-07-16T03:40:24;5.43;;;3.45;;
9310;SDS011;4694;52.464;13.480;2023-07-16T03:42:52;5.32;;;3.30;;
9310;SDS011;4694;52.464;13.480;2023-07-16T03:45:19;4.20;;;3.30;;
9310;SDS011;4694;52.464;13.480;2023-07-16T03:47:47;3.92;;;3.20;;
9310;SDS011;4694;52.464;13.480;2023-07-16T03:50:14;3.33;;;2.95;;
9310;SDS011;4694;52.464;13.480;2023-07-16T03:52:40;5.55;;;3.60;;
9310;SDS011;4694;52.464;13.480;2023-07-16T03:55:07;4.78;;;3.60;;
9310;SDS011;4694;52.464;13.480;2023-07-16T03:57:34;4.95;;;2.92;;
9310;SDS011;4694;52.464;13.480;2023-07-16T04:00:01;5.03;;;2.70;;
9310;SDS011;4694;52.464;13.480;2023-07-16T04:02:29;5.07;;;3.17;;
9310;SDS011;4694;52.464;13.480;2023-07-16T04:04:57;3.22;;;2.88;;
9310;SDS011;4694;52.464;13.480;2023-07-16T04:07:23;4.10;;;3.70;;
9310;SDS011;4694;52.464;13.480;2023-07-16T04:09:50;6.10;;;3.40;;
9310;SDS011;4694;52.464;13.480;2023-07-16T04:12:17;3.08;;;2.72;;
9310;SDS011;4694;52.464;13.480;2023-07-16T04:14:44;3.45;;;3.15;;
9310;SDS011;4694;52.464;13.480;2023-07-16T04:17:10;3.78;;;3.47;;
9310;SDS011;4694;52.464;13.480;2023-07-16T04:19:37;4.35;;;2.92;;
9310;SDS011;4694;52.464;13.480;2023-07-16T04:22:05;5.40;;;3.17;;
9310;SDS011;4694;52.464;13.480;2023-07-16T04:24:32;3.80;;;3.38;;
9310;SDS011;4694;52.464;13.480;2023-07-16T04:26:58;5.13;;;3.95;;
9310;SDS011;4694;52.464;13.480;2023-07-16T04:29:25;5.25;;;3.65;;
9310;SDS011;4694;52.464;13.480;2023-07-16T04:31:51;3.60;;;2.78;;
9310;SDS011;4694;52.464;13.480;2023-07-16T04:34:18;4.90;;;3.47;;
9310;SDS011;4694;52.464;13.480;2023-07-16T04:36:45;5.22;;;3.58;;
9310;SDS011;4694;52.464;13.480;2023-07-16T04:39:13;6.30;;;3.80;;
9310;SDS011;4694;52.464;13.480;2023-07-16T04:41:39;3.83;;;3.45;;
9310;SDS011;4694;52.464;13.480;2023-07-16T04:44:06;5.47;;;3.58;;
9310;SDS011;4694;52.464;13.480;2023-07-16T04:46:32;5.07;;;3.92;;
9310;SDS011;4694;52.464;13.480;2023-07-16T04:48:59;5.15;;;3.35;;
9310;SDS011;4694;52.464;13.480;2023-07-16T04:51:26;7.97;;;4.22;;
9310;SDS011;4694;52.464;13.480;2023-07-16T04:53:53;11.98;;;5.72;;
9310;SDS011;4694;52.464;13.480;2023-07-16T04:56:21;4.25;;;3.85;;
9310;SDS011;4694;52.464;13.480;2023-07-16T04:58:47;5.25;;;3.63;;
9310;SDS011;4694;52.464;13.480;2023-07-16T05:01:14;4.72;;;3.40;;
9310;SDS011;4694;52.464;13.480;2023-07-16T05:03:41;5.60;;;4.03;;
9310;SDS011;4694;52.464;13.480;2023-07-16T05:06:07;5.28;;;3.75;;
9310;SDS011;4694;52.464;13.480;2023-07-16T05:08:34;5.50;;;3.78;;
9310;SDS011;4694;52.464;13.480;2023-07-16T05:11:01;4.38;;;3.97;;
9310;SDS011;4694;52.464;13.480;2023-07-16T05:13:29;5.00;;;3.88;;
9310;SDS011;4694;52.464;13.480;2023-07-16T05:15:56;6.78;;;4.30;;
9310;SDS011;4694;52.464;13.480;2023-07-16T05:18:22;6.22;;;4.40;;
9310;SDS011;4694;52.464;13.480;2023-07-16T05:20:49;4.55;;;3.72;;
9310;SDS011;4694;52.464;13.480;2023-07-16T05:23:16;4.40;;;3.33;;
9310;SDS011;4694;52.464;13.480;2023-07-16T05:25:45;4.95;;;3.50;;
9310;SDS011;4694;52.464;13.480;2023-07-16T05:28:13;5.53;;;4.20;;
9310;SDS011;4694;52.464;13.480;2023-07-16T05:30:41;6.03;;;4.03;;
9310;SDS011;4694;52.464;13.480;2023-07-16T05:33:08;4.78;;;3.72;;
9310;SDS011;4694;52.464;13.480;2023-07-16T05:35:36;5.22;;;3.40;;
9310;SDS011;4694;52.464;13.480;2023-07-16T05:38:03;5.47;;;3.10;;
9310;SDS011;4694;52.464;13.480;2023-07-16T05:40:29;4.93;;;3.05;;
9310;SDS011;4694;52.464;13.480;2023-07-16T05:42:56;3.78;;;3.10;;
9310;SDS011;4694;52.464;13.480;2023-07-16T05:45:22;5.72;;;3.05;;
9310;SDS011;4694;52.464;13.480;2023-07-16T05:47:50;5.70;;;3.70;;
9310;SDS011;4694;52.464;13.480;2023-07-16T05:50:17;5.30;;;3.15;;
9310;SDS011;4694;52.464;13.480;2023-07-16T05:52:44;4.05;;;3.58;;
9310;SDS011;4694;52.464;13.480;2023-07-16T05:55:12;3.28;;;3.05;;
9310;SDS011;4694;52.464;13.480;2023-07-16T05:57:39;3.63;;;3.13;;
9310;SDS011;4694;52.464;13.480;2023-07-16T06:00:06;3.88;;;3.47;;
9310;SDS011;4694;52.464;13.480;2023-07-16T06:02:34;4.55;;;2.97;;
9310;SDS011;4694;52.464;13.480;2023-07-16T06:05:02;2.92;;;2.67;;
9310;SDS011;4694;52.464;13.480;2023-07-16T06:07:30;3.65;;;3.25;;
9310;SDS011;4694;52.464;13.480;2023-07-16T06:09:56;4.97;;;2.70;;
9310;SDS011;4694;52.464;13.480;2023-07-16T06:12:23;6.15;;;3.75;;
9310;SDS011;4694;52.464;13.480;2023-07-16T06:14:50;3.78;;;2.70;;
9310;SDS011;4694;52.464;13.480;2023-07-16T06:17:16;4.05;;;2.75;;
9310;SDS011;4694;52.464;13.480;2023-07-16T06:19:43;3.67;;;2.65;;
9310;SDS011;4694;52.464;13.480;2023-07-16T06:22:11;3.85;;;2.50;;
9310;SDS011;4694;52.464;13.480;2023-07-16T06:24:37;3.78;;;2.92;;
9310;SDS011;4694;52.464;13.480;2023-07-16T06:27:04;3.90;;;2.80;;
9310;SDS011;4694;52.464;13.480;2023-07-16T06:29:31;7.18;;;3.75;;
9310;SDS011;4694;52.464;13.480;2023-07-16T06:31:58;2.65;;;1.98;;
9310;SDS011;4694;52.464;13.480;2023-07-16T06:34:25;4.95;;;2.22;;
9310;SDS011;4694;52.464;13.480;2023-07-16T06:36:51;2.80;;;2.60;;
9310;SDS011;4694;52.464;13.480;2023-07-16T06:39:19;3.53;;;3.08;;
9310;SDS011;4694;52.464;13.480;2023-07-16T06:41:46;3.95;;;3.13;;
9310;SDS011;4694;52.464;13.480;2023-07-16T06:44:13;7.25;;;2.83;;
9310;SDS011;4694;52.464;13.480;2023-07-16T06:46:39;3.28;;;2.70;;
9310;SDS011;4694;52.464;13.480;2023-07-16T06:49:08;3.10;;;2.80;;
9310;SDS011;4694;52.464;13.480;2023-07-16T06:51:34;3.03;;;2.78;;
9310;SDS011;4694;52.464;13.480;2023-07-16T06:54:01;3.63;;;2.53;;
9310;SDS011;4694;52.464;13.480;2023-07-16T06:56:28;2.75;;;2.05;;
9310;SDS011;4694;52.464;13.480;2023-07-16T06:58:54;3.38;;;2.40;;
9310;SDS011;4694;52.464;13.480;2023-07-16T07:01:21;2.25;;;2.05;;
9310;SDS011;4694;52.464;13.480;2023-07-16T07:03:48;4.50;;;2.38;;
9310;SDS011;4694;52.464;13.480;2023-07-16T07:06:14;2.85;;;2.30;;
9310;SDS011;4694;52.464;13.480;2023-07-16T07:08:41;4.53;;;2.65;;
9310;SDS011;4694;52.464;13.480;2023-07-16T07:11:07;4.10;;;2.53;;
9310;SDS011;4694;52.464;13.480;2023-07-16T07:13:35;2.10;;;1.90;;
9310;SDS011;4694;52.464;13.480;2023-07-16T07:16:02;2.97;;;1.95;;
9310;SDS011;4694;52.464;13.480;2023-07-16T07:18:29;4.80;;;2.65;;
9310;SDS011;4694;52.464;13.480;2023-07-16T07:20:56;4.30;;;2.55;;
9310;SDS011;4694;52.464;13.480;2023-07-16T07:23:22;3.17;;;2.17;;
9310;SDS011;4694;52.464;13.480;2023-07-16T07:25:49;4.28;;;2.38;;
9310;SDS011;4694;52.464;13.480;2023-07-16T07:28:16;3.38;;;2.45;;
9310;SDS011;4694;52.464;13.480;2023-07-16T07:30:44;2.67;;;2.20;;
9310;SDS011;4694;52.464;13.480;2023-07-16T07:33:11;5.43;;;2.20;;
9310;SDS011;4694;52.464;13.480;2023-07-16T07:35:38;2.92;;;2.13;;
9310;SDS011;4694;52.464;13.480;2023-07-16T07:38:05;2.65;;;2.40;;
9310;SDS011;4694;52.464;13.480;2023-07-16T07:40:31;4.50;;;2.22;;
9310;SDS011;4694;52.464;13.480;2023-07-16T07:42:58;5.13;;;3.38;;
9310;SDS011;4694;52.464;13.480;2023-07-16T07:45:25;4.30;;;2.30;;
9310;SDS011;4694;52.464;13.480;2023-07-16T07:47:53;3.22;;;2.53;;
9310;SDS011;4694;52.464;13.480;2023-07-16T07:50:20;3.75;;;2.55;;
9310;SDS011;4694;52.464;13.480;2023-07-16T07:52:47;2.58;;;2.38;;
9310;SDS011;4694;52.464;13.480;2023-07-16T07:55:14;2.30;;;2.10;;
9310;SDS011;4694;52.464;13.480;2023-07-16T07:57:40;3.85;;;2.67;;
9310;SDS011;4694;52.464;13.480;2023-07-16T08:00:08;2.05;;;1.95;;
9310;SDS011;4694;52.464;13.480;2023-07-16T08:02:36;2.25;;;2.13;;
9310;SDS011;4694;52.464;13.480;2023-07-16T08:05:05;3.05;;;2.15;;
9310;SDS011;4694;52.464;13.480;2023-07-16T08:07:32;2.57;;;1.63;;
9310;SDS011;4694;52.464;13.480;2023-07-16T08:09:59;3.75;;;1.85;;
9310;SDS011;4694;52.464;13.480;2023-07-16T08:12:26;2.38;;;2.17;;
9310;SDS011;4694;52.464;13.480;2023-07-16T08:14:52;2.05;;;1.85;;
9310;SDS011;4694;52.464;13.480;2023-07-16T08:17:19;2.90;;;2.67;;
9310;SDS011;4694;52.464;13.480;2023-07-16T08:19:45;2.38;;;2.08;;
9310;SDS011;4694;52.464;13.480;2023-07-16T08:22:13;2.53;;;2.15;;
9310;SDS011;4694;52.464;13.480;2023-07-16T08:24:40;3.45;;;2.13;;
9310;SDS011;4694;52.464;13.480;2023-07-16T08:27:07;2.88;;;2.28;;
9310;SDS011;4694;52.464;13.480;2023-07-16T08:29:35;2.85;;;1.70;;
9310;SDS011;4694;52.464;13.480;2023-07-16T08:32:01;1.92;;;1.73;;
9310;SDS011;4694;52.464;13.480;2023-07-16T08:34:29;2.33;;;1.60;;
9310;SDS011;4694;52.464;13.480;2023-07-16T08:36:55;1.98;;;1.60;;
9310;SDS011;4694;52.464;13.480;2023-07-16T08:39:23;3.78;;;1.70;;
9310;SDS011;4694;52.464;13.480;2023-07-16T08:41:50;2.92;;;1.35;;
9310;SDS011;4694;52.464;13.480;2023-07-16T08:44:17;2.15;;;1.45;;
9310;SDS011;4694;52.464;13.480;2023-07-16T08:46:43;5.70;;;1.35;;
9310;SDS011;4694;52.464;13.480;2023-07-16T08:49:11;3.22;;;1.52;;
9310;SDS011;4694;52.464;13.480;2023-07-16T08:51:38;2.45;;;1.38;;
9310;SDS011;4694;52.464;13.480;2023-07-16T08:54:05;2.45;;;1.67;;
9310;SDS011;4694;52.464;13.480;2023-07-16T08:56:33;2.10;;;1.33;;
9310;SDS011;4694;52.464;13.480;2023-07-16T08:59:00;1.55;;;1.40;;
9310;SDS011;4694;52.464;13.480;2023-07-16T09:01:27;3.30;;;2.45;;
9310;SDS011;4694;52.464;13.480;2023-07-16T09:03:54;2.75;;;1.55;;
9310;SDS011;4694;52.464;13.480;2023-07-16T09:06:21;2.20;;;1.37;;
9310;SDS011;4694;52.464;13.480;2023-07-16T09:08:47;1.40;;;1.30;;
9310;SDS011;4694;52.464;13.480;2023-07-16T09:11:14;2.10;;;1.00;;
9310;SDS011;4694;52.464;13.480;2023-07-16T09:13:47;2.28;;;1.30;;
9310;SDS011;4694;52.464;13.480;2023-07-16T09:16:14;3.30;;;1.40;;
9310;SDS011;4694;52.464;13.480;2023-07-16T09:18:43;4.15;;;1.65;;
9310;SDS011;4694;52.464;13.480;2023-07-16T09:21:10;2.35;;;1.17;;
9310;SDS011;4694;52.464;13.480;2023-07-16T09:23:37;3.45;;;1.83;;
9310;SDS011;4694;52.464;13.480;2023-07-16T09:26:04;4.93;;;1.52;;
9310;SDS011;4694;52.464;13.480;2023-07-16T09:28:31;3.67;;;1.48;;
9310;SDS011;4694;52.464;13.480;2023-07-16T09:31:04;3.10;;;1.60;;
9310;SDS011;4694;52.464;13.480;2023-07-16T09:33:31;1.77;;;1.50;;
9310;SDS011;4694;52.464;13.480;2023-07-16T09:35:59;3.88;;;2.13;;
9310;SDS011;4694;52.464;13.480;2023-07-16T09:38:27;2.47;;;1.38;;
9310;SDS011;4694;52.464;13.480;2023-07-16T09:40:55;2.30;;;1.77;;
9310;SDS011;4694;52.464;13.480;2023-07-16T09:43:22;1.85;;;1.00;;
9310;SDS011;4694;52.464;13.480;2023-07-16T09:45:49;3.33;;;1.60;;
9310;SDS011;4694;52.464;13.480;2023-07-16T09:48:17;2.78;;;1.20;;
9310;SDS011;4694;52.464;13.480;2023-07-16T09:50:45;1.98;;;1.75;;
9310;SDS011;4694;52.464;13.480;2023-07-16T09:53:18;1.95;;;1.10;;
9310;SDS011;4694;52.464;13.480;2023-07-16T09:55:45;2.28;;;1.35;;
9310;SDS011;4694;52.464;13.480;2023-07-16T09:58:14;3.47;;;1.83;;
9310;SDS011;4694;52.464;13.480;2023-07-16T10:00:44;3.55;;;1.40;;
9310;SDS011;4694;52.464;13.480;2023-07-16T10:03:12;4.07;;;1.40;;
9310;SDS011;4694;52.464;13.480;2023-07-16T10:05:41;2.25;;;1.35;;
9310;SDS011;4694;52.464;13.480;2023-07-16T10:08:15;3.15;;;1.45;;
9310;SDS011;4694;52.464;13.480;2023-07-16T10:10:43;2.88;;;1.48;;
9310;SDS011;4694;52.464;13.480;2023-07-16T10:13:12;3.65;;;1.58;;
9310;SDS011;4694;52.464;13.480;2023-07-16T10:15:39;3.47;;;1.67;;
9310;SDS011;4694;52.464;13.480;2023-07-16T10:18:22;3.53;;;2.08;;
9310;SDS011;4694;52.464;13.480;2023-07-16T10:20:59;2.00;;;1.23;;
9310;SDS011;4694;52.464;13.480;2023-07-16T10:23:36;4.88;;;2.25;;
9310;SDS011;4694;52.464;13.480;2023-07-16T10:26:04;3.72;;;2.00;;
9310;SDS011;4694;52.464;13.480;2023-07-16T10:28:33;2.67;;;1.83;;
9310;SDS011;4694;52.464;13.480;2023-07-16T10:30:59;5.03;;;1.73;;
9310;SDS011;4694;52.464;13.480;2023-07-16T10:33:26;2.53;;;1.60;;
9310;SDS011;4694;52.464;13.480;2023-07-16T10:35:56;3.78;;;1.77;;
9310;SDS011;4694;52.464;13.480;2023-07-16T10:38:23;2.15;;;1.92;;
9310;SDS011;4694;52.464;13.480;2023-07-16T10:40:50;2.33;;;1.90;;
9310;SDS011;4694;52.464;13.480;2023-07-16T10:43:17;2.83;;;1.45;;
9310;SDS011;4694;52.464;13.480;2023-07-16T10:45:43;1.90;;;1.63;;
9310;SDS011;4694;52.464;13.480;2023-07-16T10:48:12;2.60;;;1.35;;
9310;SDS011;4694;52.464;13.480;2023-07-16T10:50:38;1.98;;;1.77;;
9310;SDS011;4694;52.464;13.480;2023-07-16T10:53:06;2.03;;;1.70;;
9310;SDS011;4694;52.464;13.480;2023-07-16T10:55:33;2.80;;;1.55;;
9310;SDS011;4694;52.464;13.480;2023-07-16T10:58:03;3.47;;;2.25;;
9310;SDS011;4694;52.464;13.480;2023-07-16T11:00:31;2.58;;;1.73;;
9310;SDS011;4694;52.464;13.480;2023-07-16T11:02:58;2.22;;;1.88;;
9310;SDS011;4694;52.464;13.480;2023-07-16T11:05:24;2.50;;;1.70;;
9310;SDS011;4694;52.464;13.480;2023-07-16T11:07:51;4.25;;;1.88;;
9310;SDS011;4694;52.464;13.480;2023-07-16T11:10:19;2.10;;;1.33;;
9310;SDS011;4694;52.464;13.480;2023-07-16T11:12:49;3.67;;;1.60;;
9310;SDS011;4694;52.464;13.480;2023-07-16T11:15:16;3.15;;;1.60;;
9310;SDS011;4694;52.464;13.480;2023-07-16T11:17:48;2.08;;;1.60;;
9310;SDS011;4694;52.464;13.480;2023-07-16T11:20:15;1.40;;;1.27;;
9310;SDS011;4694;52.464;13.480;2023-07-16T11:22:41;2.65;;;1.60;;
9310;SDS011;4694;52.464;13.480;2023-07-16T11:25:11;2.28;;;1.60;;
9310;SDS011;4694;52.464;13.480;2023-07-16T11:27:41;2.75;;;1.77;;
9310;SDS011;4694;52.464;13.480;2023-07-16T11:30:08;3.50;;;1.50;;
9310;SDS011;4694;52.464;13.480;2023-07-16T11:32:36;3.15;;;1.75;;
9310;SDS011;4694;52.464;13.480;2023-07-16T11:35:04;3.38;;;1.83;;
9310;SDS011;4694;52.464;13.480;2023-07-16T11:37:33;3.17;;;1.55;;
9310;SDS011;4694;52.464;13.480;2023-07-16T11:40:01;3.63;;;1.67;;
9310;SDS011;4694;52.464;13.480;2023-07-16T11:42:29;3.20;;;1.88;;
9310;SDS011;4694;52.464;13.480;2023-07-16T11:44:57;2.60;;;1.40;;
9310;SDS011;4694;52.464;13.480;2023-07-16T11:47:25;2.75;;;2.03;;
9310;SDS011;4694;52.464;13.480;2023-07-16T11:49:51;2.03;;;1.60;;
9310;SDS011;4694;52.464;13.480;2023-07-16T11:52:19;2.28;;;1.98;;
9310;SDS011;4694;52.464;13.480;2023-07-16T11:54:46;4.20;;;1.60;;
9310;SDS011;4694;52.464;13.480;2023-07-16T11:57:13;3.75;;;2.08;;
9310;SDS011;4694;52.464;13.480;2023-07-16T11:59:40;2.83;;;1.42;;
9310;SDS011;4694;52.464;13.480;2023-07-16T12:02:08;1.77;;;1.40;;
9310;SDS011;4694;52.464;13.480;2023-07-16T12:04:34;3.13;;;1.50;;
9310;SDS011;4694;52.464;13.480;2023-07-16T12:07:01;4.55;;;1.50;;
9310;SDS011;4694;52.464;13.480;2023-07-16T12:09:28;2.05;;;1.40;;
9310;SDS011;4694;52.464;13.480;2023-07-16T12:11:54;5.22;;;1.52;;
9310;SDS011;4694;52.464;13.480;2023-07-16T12:14:22;2.78;;;1.13;;
9310;SDS011;4694;52.464;13.480;2023-07-16T12:16:49;2.25;;;1.48;;
9310;SDS011;4694;52.464;13.480;2023-07-16T12:19:17;3.03;;;1.58;;
9310;SDS011;4694;52.464;13.480;2023-07-16T12:21:44;2.97;;;1.60;;
9310;SDS011;4694;52.464;13.480;2023-07-16T12:24:10;2.38;;;1.27;;
9310;SDS011;4694;52.464;13.480;2023-07-16T12:26:37;2.75;;;1.70;;
9310;SDS011;4694;52.464;13.480;2023-07-16T12:29:04;3.25;;;2.00;;
9310;SDS011;4694;52.464;13.480;2023-07-16T12:31:30;4.00;;;1.38;;
9310;SDS011;4694;52.464;13.480;2023-07-16T12:33:57;2.83;;;1.50;;
9310;SDS011;4694;52.464;13.480;2023-07-16T12:36:26;2.60;;;1.38;;
9310;SDS011;4694;52.464;13.480;2023-07-16T12:38:52;3.17;;;1.77;;
9310;SDS011;4694;52.464;13.480;2023-07-16T12:41:19;2.17;;;0.90;;
9310;SDS011;4694;52.464;13.480;2023-07-16T12:43:45;4.68;;;1.83;;
9310;SDS011;4694;52.464;13.480;2023-07-16T12:46:13;2.55;;;1.30;;
9310;SDS011;4694;52.464;13.480;2023-07-16T12:48:39;1.70;;;1.48;;
9310;SDS011;4694;52.464;13.480;2023-07-16T12:51:06;2.53;;;1.23;;
9310;SDS011;4694;52.464;13.480;2023-07-16T12:53:34;2.40;;;1.63;;
9310;SDS011;4694;52.464;13.480;2023-07-16T12:56:00;3.25;;;1.40;;
9310;SDS011;4694;52.464;13.480;2023-07-16T12:58:28;3.90;;;1.27;;
9310;SDS011;4694;52.464;13.480;2023-07-16T13:00:54;3.15;;;1.58;;
9310;SDS011;4694;52.464;13.480;2023-07-16T13:03:21;2.42;;;1.08;;
9310;SDS011;4694;52.464;13.480;2023-07-16T13:05:47;6.95;;;1.50;;
9310;SDS011;4694;52.464;13.480;2023-07-16T13:08:14;2.08;;;1.38;;
9310;SDS011;4694;52.464;13.480;2023-07-16T13:10:42;3.78;;;1.65;;
9310;SDS011;4694;52.464;13.480;2023-07-16T13:13:08;2.75;;;1.50;;
9310;SDS011;4694;52.464;13.480;2023-07-16T13:15:35;3.20;;;1.55;;
9310;SDS011;4694;52.464;13.480;2023-07-16T13:18:02;3.63;;;1.60;;
9310;SDS011;4694;52.464;13.480;2023-07-16T13:20:28;5.57;;;2.55;;
9310;SDS011;4694;52.464;13.480;2023-07-16T13:22:55;3.72;;;1.90;;
9310;SDS011;4694;52.464;13.480;2023-07-16T13:25:22;3.28;;;1.92;;
9310;SDS011;4694;52.464;13.480;2023-07-16T13:27:50;3.05;;;2.10;;
9310;SDS011;4694;52.464;13.480;2023-07-16T13:30:18;3.25;;;2.00;;
9310;SDS011;4694;52.464;13.480;2023-07-16T13:32:44;5.65;;;1.67;;
9310;SDS011;4694;52.464;13.480;2023-07-16T13:35:13;2.33;;;1.33;;
9310;SDS011;4694;52.464;13.480;2023-07-16T13:37:40;3.45;;;1.52;;
9310;SDS011;4694;52.464;13.480;2023-07-16T13:40:07;1.67;;;1.00;;
9310;SDS011;4694;52.464;13.480;2023-07-16T13:42:34;2.17;;;1.52;;
9310;SDS011;4694;52.464;13.480;2023-07-16T13:45:02;2.90;;;1.80;;
9310;SDS011;4694;52.464;13.480;2023-07-16T13:47:29;1.60;;;1.30;;
9310;SDS011;4694;52.464;13.480;2023-07-16T13:49:55;1.63;;;1.15;;
9310;SDS011;4694;52.464;13.480;2023-07-16T13:52:22;1.90;;;1.48;;
9310;SDS011;4694;52.464;13.480;2023-07-16T13:54:49;1.63;;;1.40;;
9310;SDS011;4694;52.464;13.480;2023-07-16T13:57:15;2.30;;;1.20;;
9310;SDS011;4694;52.464;13.480;2023-07-16T13:59:42;3.00;;;1.55;;
9310;SDS011;4694;52.464;13.480;2023-07-16T14:02:10;3.78;;;1.35;;
9310;SDS011;4694;52.464;13.480;2023-07-16T14:04:36;3.13;;;1.15;;
9310;SDS011;4694;52.464;13.480;2023-07-16T14:07:03;5.22;;;1.77;;
9310;SDS011;4694;52.464;13.480;2023-07-16T14:09:30;2.75;;;1.40;;
9310;SDS011;4694;52.464;13.480;2023-07-16T14:11:56;2.30;;;1.20;;
9310;SDS011;4694;52.464;13.480;2023-07-16T14:14:23;3.53;;;1.55;;
9310;SDS011;4694;52.464;13.480;2023-07-16T14:16:50;1.63;;;0.98;;
9310;SDS011;4694;52.464;13.480;2023-07-16T14:19:18;2.92;;;1.27;;
9310;SDS011;4694;52.464;13.480;2023-07-16T14:21:44;3.63;;;1.33;;
9310;SDS011;4694;52.464;13.480;2023-07-16T14:24:11;1.80;;;1.00;;
9310;SDS011;4694;52.464;13.480;2023-07-16T14:26:38;5.20;;;1.40;;
9310;SDS011;4694;52.464;13.480;2023-07-16T14:29:04;2.80;;;1.40;;
9310;SDS011;4694;52.464;13.480;2023-07-16T14:31:31;2.10;;;1.45;;
9310;SDS011;4694;52.464;13.480;2023-07-16T14:33:57;3.08;;;1.58;;
9310;SDS011;4694;52.464;13.480;2023-07-16T14:36:25;3.35;;;1.55;;
9310;SDS011;4694;52.464;13.480;2023-07-16T14:38:52;5.72;;;1.65;;
9310;SDS011;4694;52.464;13.480;2023-07-16T14:41:19;3.85;;;1.02;;
9310;SDS011;4694;52.464;13.480;2023-07-16T14:43:46;2.03;;;1.38;;
9310;SDS011;4694;52.464;13.480;2023-07-16T14:46:14;4.05;;;0.85;;
9310;SDS011;4694;52.464;13.480;2023-07-16T14:48:41;2.72;;;2.03;;
9310;SDS011;4694;52.464;13.480;2023-07-16T14:51:09;2.63;;;1.30;;
9310;SDS011;4694;52.464;13.480;2023-07-16T14:53:37;1.30;;;1.15;;
9310;SDS011;4694;52.464;13.480;2023-07-16T14:56:03;2.40;;;1.35;;
9310;SDS011;4694;52.464;13.480;2023-07-16T14:58:31;2.80;;;1.15;;
9310;SDS011;4694;52.464;13.480;2023-07-16T15:00:59;2.50;;;1.02;;